sensor_id;sensor_type;location;lat;lon;timestamp;temperature;humidity
80132;SHT30;69442;51.442;10.564;2023-08-21T00:01:05;24.60;59.55
80132;SHT30;69442;51.442;10.564;2023-08-21T00:03:31;24.55;59.50
80132;SHT30;69442;51.442;10.564;2023-08-21T00:05:56;24.52;59.47
80132;SHT30;69442;51.442;10.564;2023-08-21T00:08:21;24.51;59.54
80132;SHT30;69442;51.442;10.564;2023-08-21T00:10:47;24.47;59.58
80132;SHT30;69442;51.442;10.564;2023-08-21T00:13:13;24.45;59.58
80132;SHT30;69442;51.442;10.564;2023-08-21T00:15:38;24.41;59.60
80132;SHT30;69442;51.442;10.564;2023-08-21T00:18:04;24.39;59.52
80132;SHT30;69442;51.442;10.564;2023-08-21T00:20:30;24.38;59.45
80132;SHT30;69442;51.442;10.564;2023-08-21T00:22:56;24.36;59.51
80132;SHT30;69442;51.442;10.564;2023-08-21T00:25:21;24.31;59.50
80132;SHT30;69442;51.442;10.564;2023-08-21T00:27:47;24.28;59.58
80132;SHT30;69442;51.442;10.564;2023-08-21T00:30:12;24.25;59.59
80132;SHT30;69442;51.442;10.564;2023-08-21T00:32:40;24.20;59.62
80132;SHT30;69442;51.442;10.564;2023-08-21T00:35:05;24.15;59.60
80132;SHT30;69442;51.442;10.564;2023-08-21T00:37:31;24.17;59.60
80132;SHT30;69442;51.442;10.564;2023-08-21T00:39:56;24.14;59.56
80132;SHT30;69442;51.442;10.564;2023-08-21T00:42:22;24.11;59.54
80132;SHT30;69442;51.442;10.564;2023-08-21T00:44:47;24.07;59.52
80132;SHT30;69442;51.442;10.564;2023-08-21T00:47:12;24.04;59.57
80132;SHT30;69442;51.442;10.564;2023-08-21T00:49:38;24.04;59.56
80132;SHT30;69442;51.442;10.564;2023-08-21T00:52:06;24.00;59.65
80132;SHT30;69442;51.442;10.564;2023-08-21T00:54:32;23.97;59.62
80132;SHT30;69442;51.442;10.564;2023-08-21T00:56:57;23.96;59.62
80132;SHT30;69442;51.442;10.564;2023-08-21T00:59:23;23.94;59.62
80132;SHT30;69442;51.442;10.564;2023-08-21T01:01:48;23.90;59.73
80132;SHT30;69442;51.442;10.564;2023-08-21T01:04:14;23.89;59.77
80132;SHT30;69442;51.442;10.564;2023-08-21T01:06:39;23.87;59.88
80132;SHT30;69442;51.442;10.564;2023-08-21T01:12:22;23.81;59.99
80132;SHT30;69442;51.442;10.564;2023-08-21T01:14:58;23.80;59.81
80132;SHT30;69442;51.442;10.564;2023-08-21T01:17:25;23.79;59.92
80132;SHT30;69442;51.442;10.564;2023-08-21T01:19:52;23.77;59.86
80132;SHT30;69442;51.442;10.564;2023-08-21T01:22:18;23.73;59.91
80132;SHT30;69442;51.442;10.564;2023-08-21T01:24:44;23.74;59.95
80132;SHT30;69442;51.442;10.564;2023-08-21T01:27:10;23.69;60.01
80132;SHT30;69442;51.442;10.564;2023-08-21T01:29:37;23.70;59.99
80132;SHT30;69442;51.442;10.564;2023-08-21T01:32:37;23.65;59.99
80132;SHT30;69442;51.442;10.564;2023-08-21T01:35:05;23.62;59.95
80132;SHT30;69442;51.442;10.564;2023-08-21T01:37:31;23.61;59.97
80132;SHT30;69442;51.442;10.564;2023-08-21T01:40:00;23.59;60.05
80132;SHT30;69442;51.442;10.564;2023-08-21T01:42:25;23.55;60.08
80132;SHT30;69442;51.442;10.564;2023-08-21T01:44:50;23.55;60.06
80132;SHT30;69442;51.442;10.564;2023-08-21T01:47:16;23.55;60.06
80132;SHT30;69442;51.442;10.564;2023-08-21T01:49:41;23.52;60.06
80132;SHT30;69442;51.442;10.564;2023-08-21T01:52:07;23.51;60.18
80132;SHT30;69442;51.442;10.564;2023-08-21T01:54:32;23.49;60.08
80132;SHT30;69442;51.442;10.564;2023-08-21T01:56:57;23.46;60.12
80132;SHT30;69442;51.442;10.564;2023-08-21T01:59:24;23.45;60.23
80132;SHT30;69442;51.442;10.564;2023-08-21T02:01:50;23.41;60.24
80132;SHT30;69442;51.442;10.564;2023-08-21T02:04:15;23.35;60.35
80132;SHT30;69442;51.442;10.564;2023-08-21T02:06:40;23.37;60.36
80132;SHT30;69442;51.442;10.564;2023-08-21T02:09:06;23.35;60.29
80132;SHT30;69442;51.442;10.564;2023-08-21T02:11:31;23.31;60.27
80132;SHT30;69442;51.442;10.564;2023-08-21T02:13:57;23.28;60.31
80132;SHT30;69442;51.442;10.564;2023-08-21T02:16:22;23.25;60.33
80132;SHT30;69442;51.442;10.564;2023-08-21T02:18:48;23.25;60.30
80132;SHT30;69442;51.442;10.564;2023-08-21T02:21:13;23.22;60.31
80132;SHT30;69442;51.442;10.564;2023-08-21T02:23:39;23.21;60.42
80132;SHT30;69442;51.442;10.564;2023-08-21T02:26:04;23.17;60.50
80132;SHT30;69442;51.442;10.564;2023-08-21T02:28:30;23.15;60.53
80132;SHT30;69442;51.442;10.564;2023-08-21T02:30:55;23.11;60.64
80132;SHT30;69442;51.442;10.564;2023-08-21T02:33:20;23.11;60.70
80132;SHT30;69442;51.442;10.564;2023-08-21T02:35:46;23.07;60.71
80132;SHT30;69442;51.442;10.564;2023-08-21T02:38:11;23.08;60.76
80132;SHT30;69442;51.442;10.564;2023-08-21T02:40:36;23.04;60.80
80132;SHT30;69442;51.442;10.564;2023-08-21T02:43:02;23.03;60.82
80132;SHT30;69442;51.442;10.564;2023-08-21T02:45:27;22.99;60.85
80132;SHT30;69442;51.442;10.564;2023-08-21T02:47:53;22.99;60.93
80132;SHT30;69442;51.442;10.564;2023-08-21T02:50:18;23.00;60.99
80132;SHT30;69442;51.442;10.564;2023-08-21T02:52:44;22.97;61.04
80132;SHT30;69442;51.442;10.564;2023-08-21T02:55:09;22.96;60.95
80132;SHT30;69442;51.442;10.564;2023-08-21T02:57:34;22.94;60.94
80132;SHT30;69442;51.442;10.564;2023-08-21T03:00:00;22.91;60.99
80132;SHT30;69442;51.442;10.564;2023-08-21T03:02:25;22.90;60.97
80132;SHT30;69442;51.442;10.564;2023-08-21T03:04:52;22.91;61.01
80132;SHT30;69442;51.442;10.564;2023-08-21T03:07:17;22.90;61.03
80132;SHT30;69442;51.442;10.564;2023-08-21T03:09:45;22.89;61.05
80132;SHT30;69442;51.442;10.564;2023-08-21T03:12:10;22.89;61.16
80132;SHT30;69442;51.442;10.564;2023-08-21T03:14:36;22.87;61.21
80132;SHT30;69442;51.442;10.564;2023-08-21T03:17:01;22.87;61.22
80132;SHT30;69442;51.442;10.564;2023-08-21T03:19:27;22.84;61.35
80132;SHT30;69442;51.442;10.564;2023-08-21T03:21:52;22.84;61.34
80132;SHT30;69442;51.442;10.564;2023-08-21T03:24:18;22.86;61.40
80132;SHT30;69442;51.442;10.564;2023-08-21T03:26:43;22.84;61.65
80132;SHT30;69442;51.442;10.564;2023-08-21T03:29:09;22.84;61.74
80132;SHT30;69442;51.442;10.564;2023-08-21T03:31:34;22.84;61.78
80132;SHT30;69442;51.442;10.564;2023-08-21T03:34:00;22.84;61.85
80132;SHT30;69442;51.442;10.564;2023-08-21T03:36:25;22.84;61.78
80132;SHT30;69442;51.442;10.564;2023-08-21T03:38:57;22.83;61.98
80132;SHT30;69442;51.442;10.564;2023-08-21T03:41:23;22.82;62.10
80132;SHT30;69442;51.442;10.564;2023-08-21T03:43:48;22.82;62.24
80132;SHT30;69442;51.442;10.564;2023-08-21T03:46:13;22.80;62.42
80132;SHT30;69442;51.442;10.564;2023-08-21T03:48:39;22.76;62.47
80132;SHT30;69442;51.442;10.564;2023-08-21T03:51:04;22.79;62.62
80132;SHT30;69442;51.442;10.564;2023-08-21T03:53:30;22.77;62.73
80132;SHT30;69442;51.442;10.564;2023-08-21T03:55:55;22.74;63.19
80132;SHT30;69442;51.442;10.564;2023-08-21T03:58:20;22.74;63.00
80132;SHT30;69442;51.442;10.564;2023-08-21T04:00:46;22.74;62.92
80132;SHT30;69442;51.442;10.564;2023-08-21T04:03:11;22.72;62.98
80132;SHT30;69442;51.442;10.564;2023-08-21T04:05:37;22.73;62.97
80132;SHT30;69442;51.442;10.564;2023-08-21T04:08:02;22.70;63.13
80132;SHT30;69442;51.442;10.564;2023-08-21T04:10:28;22.70;63.32
80132;SHT30;69442;51.442;10.564;2023-08-21T04:12:53;22.67;63.22
80132;SHT30;69442;51.442;10.564;2023-08-21T04:15:18;22.67;63.23
80132;SHT30;69442;51.442;10.564;2023-08-21T04:17:44;22.65;63.19
80132;SHT30;69442;51.442;10.564;2023-08-21T04:20:09;22.63;63.24
80132;SHT30;69442;51.442;10.564;2023-08-21T04:22:35;22.65;63.42
80132;SHT30;69442;51.442;10.564;2023-08-21T04:25:00;22.62;63.61
80132;SHT30;69442;51.442;10.564;2023-08-21T04:27:26;22.59;63.57
80132;SHT30;69442;51.442;10.564;2023-08-21T04:29:53;22.60;63.79
80132;SHT30;69442;51.442;10.564;2023-08-21T04:32:18;22.60;63.84
80132;SHT30;69442;51.442;10.564;2023-08-21T04:34:44;22.57;63.89
80132;SHT30;69442;51.442;10.564;2023-08-21T04:37:09;22.56;63.91
80132;SHT30;69442;51.442;10.564;2023-08-21T04:39:34;22.56;63.92
80132;SHT30;69442;51.442;10.564;2023-08-21T04:42:01;22.53;63.96
80132;SHT30;69442;51.442;10.564;2023-08-21T04:44:27;22.55;63.93
80132;SHT30;69442;51.442;10.564;2023-08-21T04:46:52;22.55;64.01
80132;SHT30;69442;51.442;10.564;2023-08-21T04:49:18;22.52;64.08
80132;SHT30;69442;51.442;10.564;2023-08-21T04:51:43;22.51;64.08
80132;SHT30;69442;51.442;10.564;2023-08-21T04:54:09;22.52;64.12
80132;SHT30;69442;51.442;10.564;2023-08-21T04:56:34;22.52;64.13
80132;SHT30;69442;51.442;10.564;2023-08-21T04:58:59;22.51;64.16
80132;SHT30;69442;51.442;10.564;2023-08-21T05:01:25;22.51;64.17
80132;SHT30;69442;51.442;10.564;2023-08-21T05:03:51;22.49;64.25
80132;SHT30;69442;51.442;10.564;2023-08-21T05:06:16;22.48;64.31
80132;SHT30;69442;51.442;10.564;2023-08-21T05:08:42;22.48;64.25
80132;SHT30;69442;51.442;10.564;2023-08-21T05:11:07;22.48;64.32
80132;SHT30;69442;51.442;10.564;2023-08-21T05:13:33;22.44;64.35
80132;SHT30;69442;51.442;10.564;2023-08-21T05:15:58;22.46;64.35
80132;SHT30;69442;51.442;10.564;2023-08-21T05:18:24;22.46;64.53
80132;SHT30;69442;51.442;10.564;2023-08-21T05:20:52;22.45;64.47
80132;SHT30;69442;51.442;10.564;2023-08-21T05:23:17;22.41;64.53
80132;SHT30;69442;51.442;10.564;2023-08-21T05:25:45;22.41;64.52
80132;SHT30;69442;51.442;10.564;2023-08-21T05:28:10;22.41;64.50
80132;SHT30;69442;51.442;10.564;2023-08-21T05:30:36;22.39;64.70
80132;SHT30;69442;51.442;10.564;2023-08-21T05:33:02;22.39;64.57
80132;SHT30;69442;51.442;10.564;2023-08-21T05:35:28;22.35;64.62
80132;SHT30;69442;51.442;10.564;2023-08-21T05:37:53;22.37;64.57
80132;SHT30;69442;51.442;10.564;2023-08-21T05:40:18;22.38;64.72
80132;SHT30;69442;51.442;10.564;2023-08-21T05:42:44;22.38;64.79
80132;SHT30;69442;51.442;10.564;2023-08-21T05:45:10;22.35;64.89
80132;SHT30;69442;51.442;10.564;2023-08-21T05:47:35;22.41;65.07
80132;SHT30;69442;51.442;10.564;2023-08-21T05:50:01;22.42;65.12
80132;SHT30;69442;51.442;10.564;2023-08-21T05:52:26;22.46;65.07
80132;SHT30;69442;51.442;10.564;2023-08-21T05:54:52;22.51;65.05
80132;SHT30;69442;51.442;10.564;2023-08-21T05:57:17;22.53;64.96
80132;SHT30;69442;51.442;10.564;2023-08-21T05:59:44;22.60;64.82
80132;SHT30;69442;51.442;10.564;2023-08-21T06:02:10;22.66;65.09
80132;SHT30;69442;51.442;10.564;2023-08-21T06:04:37;22.73;64.66
80132;SHT30;69442;51.442;10.564;2023-08-21T06:07:03;22.79;64.55
80132;SHT30;69442;51.442;10.564;2023-08-21T06:09:28;22.84;65.04
80132;SHT30;69442;51.442;10.564;2023-08-21T06:11:54;22.90;64.73
80132;SHT30;69442;51.442;10.564;2023-08-21T06:14:20;22.97;64.37
80132;SHT30;69442;51.442;10.564;2023-08-21T06:16:53;23.01;64.24
80132;SHT30;69442;51.442;10.564;2023-08-21T06:19:19;23.07;64.56
80132;SHT30;69442;51.442;10.564;2023-08-21T06:21:44;23.12;64.49
80132;SHT30;69442;51.442;10.564;2023-08-21T06:24:09;23.19;64.46
80132;SHT30;69442;51.442;10.564;2023-08-21T06:26:35;23.27;64.36
80132;SHT30;69442;51.442;10.564;2023-08-21T06:29:00;23.31;64.53
80132;SHT30;69442;51.442;10.564;2023-08-21T06:31:26;23.35;64.91
80132;SHT30;69442;51.442;10.564;2023-08-21T06:33:51;23.39;64.82
80132;SHT30;69442;51.442;10.564;2023-08-21T06:36:16;23.48;64.88
80132;SHT30;69442;51.442;10.564;2023-08-21T06:38:42;23.55;64.72
80132;SHT30;69442;51.442;10.564;2023-08-21T06:41:07;23.63;64.60
80132;SHT30;69442;51.442;10.564;2023-08-21T06:43:33;23.73;65.15
80132;SHT30;69442;51.442;10.564;2023-08-21T06:45:58;23.81;64.56
80132;SHT30;69442;51.442;10.564;2023-08-21T06:48:24;23.92;64.36
80132;SHT30;69442;51.442;10.564;2023-08-21T06:50:50;23.97;64.30
80132;SHT30;69442;51.442;10.564;2023-08-21T06:53:15;24.07;64.41
80132;SHT30;69442;51.442;10.564;2023-08-21T06:55:41;24.18;64.59
80132;SHT30;69442;51.442;10.564;2023-08-21T06:58:06;24.26;64.62
80132;SHT30;69442;51.442;10.564;2023-08-21T07:00:32;24.36;64.56
80132;SHT30;69442;51.442;10.564;2023-08-21T07:02:57;24.47;64.60
80132;SHT30;69442;51.442;10.564;2023-08-21T07:05:22;24.56;64.68
80132;SHT30;69442;51.442;10.564;2023-08-21T07:07:48;24.66;64.58
80132;SHT30;69442;51.442;10.564;2023-08-21T07:10:13;24.77;64.90
80132;SHT30;69442;51.442;10.564;2023-08-21T07:12:39;24.90;64.54
80132;SHT30;69442;51.442;10.564;2023-08-21T07:15:04;25.01;64.47
80132;SHT30;69442;51.442;10.564;2023-08-21T07:17:30;25.10;64.30
80132;SHT30;69442;51.442;10.564;2023-08-21T07:19:55;25.21;64.32
80132;SHT30;69442;51.442;10.564;2023-08-21T07:22:21;25.29;64.12
80132;SHT30;69442;51.442;10.564;2023-08-21T07:24:46;25.39;64.06
80132;SHT30;69442;51.442;10.564;2023-08-21T07:27:12;25.50;64.05
80132;SHT30;69442;51.442;10.564;2023-08-21T07:29:38;25.61;63.91
80132;SHT30;69442;51.442;10.564;2023-08-21T07:32:03;25.69;63.82
80132;SHT30;69442;51.442;10.564;2023-08-21T07:34:29;25.82;63.71
80132;SHT30;69442;51.442;10.564;2023-08-21T07:36:54;25.90;63.73
80132;SHT30;69442;51.442;10.564;2023-08-21T07:39:19;26.02;63.53
80132;SHT30;69442;51.442;10.564;2023-08-21T07:41:45;26.17;64.04
80132;SHT30;69442;51.442;10.564;2023-08-21T07:44:10;26.27;63.85
80132;SHT30;69442;51.442;10.564;2023-08-21T07:46:39;26.39;63.42
80132;SHT30;69442;51.442;10.564;2023-08-21T07:49:04;26.52;63.15
80132;SHT30;69442;51.442;10.564;2023-08-21T07:51:29;26.62;63.04
80132;SHT30;69442;51.442;10.564;2023-08-21T07:53:55;26.73;62.92
80132;SHT30;69442;51.442;10.564;2023-08-21T07:56:20;26.82;62.83
80132;SHT30;69442;51.442;10.564;2023-08-21T07:58:45;26.91;62.73
80132;SHT30;69442;51.442;10.564;2023-08-21T08:01:11;27.03;62.63
80132;SHT30;69442;51.442;10.564;2023-08-21T08:03:36;27.12;62.46
80132;SHT30;69442;51.442;10.564;2023-08-21T08:06:02;27.25;62.23
80132;SHT30;69442;51.442;10.564;2023-08-21T08:08:28;27.38;62.11
80132;SHT30;69442;51.442;10.564;2023-08-21T08:10:54;27.52;61.93
80132;SHT30;69442;51.442;10.564;2023-08-21T08:13:19;27.63;61.22
80132;SHT30;69442;51.442;10.564;2023-08-21T08:15:45;27.76;60.53
80132;SHT30;69442;51.442;10.564;2023-08-21T08:18:12;27.86;61.30
80132;SHT30;69442;51.442;10.564;2023-08-21T08:20:38;27.96;61.11
80132;SHT30;69442;51.442;10.564;2023-08-21T08:23:03;28.04;60.88
80132;SHT30;69442;51.442;10.564;2023-08-21T08:25:28;28.14;60.79
80132;SHT30;69442;51.442;10.564;2023-08-21T08:27:54;28.25;60.59
80132;SHT30;69442;51.442;10.564;2023-08-21T08:30:22;28.37;59.88
80132;SHT30;69442;51.442;10.564;2023-08-21T08:32:49;28.52;58.54
80132;SHT30;69442;51.442;10.564;2023-08-21T08:35:14;28.63;59.49
80132;SHT30;69442;51.442;10.564;2023-08-21T08:37:41;28.70;59.56
80132;SHT30;69442;51.442;10.564;2023-08-21T08:40:07;28.80;59.00
80132;SHT30;69442;51.442;10.564;2023-08-21T08:42:34;28.91;58.39
80132;SHT30;69442;51.442;10.564;2023-08-21T08:45:02;29.01;58.44
80132;SHT30;69442;51.442;10.564;2023-08-21T08:47:30;29.15;58.70
80132;SHT30;69442;51.442;10.564;2023-08-21T08:49:57;29.21;58.73
80132;SHT30;69442;51.442;10.564;2023-08-21T08:52:26;29.29;58.22
80132;SHT30;69442;51.442;10.564;2023-08-21T08:54:54;29.46;56.40
80132;SHT30;69442;51.442;10.564;2023-08-21T08:57:20;29.59;55.45
80132;SHT30;69442;51.442;10.564;2023-08-21T08:59:46;29.72;56.76
80132;SHT30;69442;51.442;10.564;2023-08-21T09:02:11;29.79;55.58
80132;SHT30;69442;51.442;10.564;2023-08-21T09:04:37;29.91;55.25
80132;SHT30;69442;51.442;10.564;2023-08-21T09:07:06;29.98;55.18
80132;SHT30;69442;51.442;10.564;2023-08-21T09:09:39;30.08;56.34
80132;SHT30;69442;51.442;10.564;2023-08-21T09:12:12;30.13;56.22
80132;SHT30;69442;51.442;10.564;2023-08-21T09:14:39;30.27;55.52
80132;SHT30;69442;51.442;10.564;2023-08-21T09:17:05;30.31;55.74
80132;SHT30;69442;51.442;10.564;2023-08-21T09:19:31;30.45;54.33
80132;SHT30;69442;51.442;10.564;2023-08-21T09:21:56;30.56;54.48
80132;SHT30;69442;51.442;10.564;2023-08-21T09:24:23;30.62;54.66
80132;SHT30;69442;51.442;10.564;2023-08-21T09:26:49;30.69;54.25
80132;SHT30;69442;51.442;10.564;2023-08-21T09:29:15;30.76;54.97
80132;SHT30;69442;51.442;10.564;2023-08-21T09:31:40;30.84;55.52
80132;SHT30;69442;51.442;10.564;2023-08-21T09:34:05;31.03;52.91
80132;SHT30;69442;51.442;10.564;2023-08-21T09:36:32;31.10;53.02
80132;SHT30;69442;51.442;10.564;2023-08-21T09:38:57;31.14;54.67
80132;SHT30;69442;51.442;10.564;2023-08-21T09:41:25;31.18;54.52
80132;SHT30;69442;51.442;10.564;2023-08-21T09:43:51;31.31;54.05
80132;SHT30;69442;51.442;10.564;2023-08-21T09:46:23;31.45;52.20
80132;SHT30;69442;51.442;10.564;2023-08-21T09:48:49;31.49;53.88
80132;SHT30;69442;51.442;10.564;2023-08-21T09:51:15;31.61;50.12
80132;SHT30;69442;51.442;10.564;2023-08-21T09:53:40;31.65;52.57
80132;SHT30;69442;51.442;10.564;2023-08-21T09:56:06;31.69;53.97
80132;SHT30;69442;51.442;10.564;2023-08-21T09:58:35;31.74;54.22
80132;SHT30;69442;51.442;10.564;2023-08-21T10:01:04;31.83;52.99
80132;SHT30;69442;51.442;10.564;2023-08-21T10:03:34;31.91;51.10
80132;SHT30;69442;51.442;10.564;2023-08-21T10:06:01;31.97;52.76
80132;SHT30;69442;51.442;10.564;2023-08-21T10:08:27;32.07;52.42
80132;SHT30;69442;51.442;10.564;2023-08-21T10:10:53;32.15;51.56
80132;SHT30;69442;51.442;10.564;2023-08-21T10:13:19;32.24;50.53
80132;SHT30;69442;51.442;10.564;2023-08-21T10:15:45;32.39;49.64
80132;SHT30;69442;51.442;10.564;2023-08-21T10:20:43;32.49;52.63
80132;SHT30;69442;51.442;10.564;2023-08-21T10:23:09;32.60;50.96
80132;SHT30;69442;51.442;10.564;2023-08-21T10:25:41;32.68;51.62
80132;SHT30;69442;51.442;10.564;2023-08-21T10:28:07;32.79;49.32
80132;SHT30;69442;51.442;10.564;2023-08-21T10:30:32;32.90;46.99
80132;SHT30;69442;51.442;10.564;2023-08-21T10:32:59;32.96;47.72
80132;SHT30;69442;51.442;10.564;2023-08-21T10:35:29;33.00;50.52
80132;SHT30;69442;51.442;10.564;2023-08-21T10:38:14;33.06;49.96
80132;SHT30;69442;51.442;10.564;2023-08-21T10:41:05;33.13;48.34
80132;SHT30;69442;51.442;10.564;2023-08-21T10:43:44;33.18;47.57
80132;SHT30;69442;51.442;10.564;2023-08-21T10:46:10;33.24;46.58
80132;SHT30;69442;51.442;10.564;2023-08-21T10:48:39;33.28;48.41
80132;SHT30;69442;51.442;10.564;2023-08-21T10:51:06;33.30;48.76
80132;SHT30;69442;51.442;10.564;2023-08-21T10:53:33;33.30;48.64
80132;SHT30;69442;51.442;10.564;2023-08-21T10:56:05;33.30;49.71
80132;SHT30;69442;51.442;10.564;2023-08-21T10:58:43;33.30;48.93
80132;SHT30;69442;51.442;10.564;2023-08-21T11:01:12;33.31;50.56
80132;SHT30;69442;51.442;10.564;2023-08-21T11:03:39;33.27;49.83
80132;SHT30;69442;51.442;10.564;2023-08-21T11:06:06;33.28;50.49
80132;SHT30;69442;51.442;10.564;2023-08-21T11:08:33;33.24;50.16
80132;SHT30;69442;51.442;10.564;2023-08-21T11:10:59;33.24;49.16
80132;SHT30;69442;51.442;10.564;2023-08-21T11:13:25;33.24;50.68
80132;SHT30;69442;51.442;10.564;2023-08-21T11:16:06;33.27;49.67
80132;SHT30;69442;51.442;10.564;2023-08-21T11:18:35;33.34;48.64
80132;SHT30;69442;51.442;10.564;2023-08-21T11:21:08;33.39;47.92
80132;SHT30;69442;51.442;10.564;2023-08-21T11:23:35;33.45;49.73
80132;SHT30;69442;51.442;10.564;2023-08-21T11:26:02;33.51;49.03
80132;SHT30;69442;51.442;10.564;2023-08-21T11:28:29;33.58;47.93
80132;SHT30;69442;51.442;10.564;2023-08-21T11:30:56;33.70;48.38
80132;SHT30;69442;51.442;10.564;2023-08-21T11:33:21;33.76;49.02
80132;SHT30;69442;51.442;10.564;2023-08-21T11:35:47;33.82;49.94
80132;SHT30;69442;51.442;10.564;2023-08-21T11:38:20;33.90;49.45
80132;SHT30;69442;51.442;10.564;2023-08-21T11:40:53;34.00;46.82
80132;SHT30;69442;51.442;10.564;2023-08-21T11:43:19;34.06;48.35
80132;SHT30;69442;51.442;10.564;2023-08-21T11:45:45;34.16;49.07
80132;SHT30;69442;51.442;10.564;2023-08-21T11:48:11;34.23;49.02
80132;SHT30;69442;51.442;10.564;2023-08-21T11:50:37;34.29;47.10
80132;SHT30;69442;51.442;10.564;2023-08-21T11:53:02;34.40;47.53
80132;SHT30;69442;51.442;10.564;2023-08-21T11:55:29;34.49;46.37
80132;SHT30;69442;51.442;10.564;2023-08-21T11:57:56;34.59;46.23
80132;SHT30;69442;51.442;10.564;2023-08-21T12:00:28;34.66;46.53
80132;SHT30;69442;51.442;10.564;2023-08-21T12:02:56;34.75;46.85
80132;SHT30;69442;51.442;10.564;2023-08-21T12:05:22;34.82;46.31
80132;SHT30;69442;51.442;10.564;2023-08-21T12:07:48;34.89;47.20
80132;SHT30;69442;51.442;10.564;2023-08-21T12:10:13;34.95;45.77
80132;SHT30;69442;51.442;10.564;2023-08-21T12:12:38;35.02;45.38
80132;SHT30;69442;51.442;10.564;2023-08-21T12:15:04;35.14;42.97
80132;SHT30;69442;51.442;10.564;2023-08-21T12:17:30;35.20;43.58
80132;SHT30;69442;51.442;10.564;2023-08-21T12:19:56;35.29;43.87
80132;SHT30;69442;51.442;10.564;2023-08-21T12:22:21;35.33;44.59
80132;SHT30;69442;51.442;10.564;2023-08-21T12:24:46;35.38;43.90
80132;SHT30;69442;51.442;10.564;2023-08-21T12:27:12;35.42;44.23
80132;SHT30;69442;51.442;10.564;2023-08-21T12:29:37;35.45;43.83
80132;SHT30;69442;51.442;10.564;2023-08-21T12:32:03;35.44;43.49
80132;SHT30;69442;51.442;10.564;2023-08-21T12:34:28;35.45;44.61
80132;SHT30;69442;51.442;10.564;2023-08-21T12:36:54;35.40;43.01
80132;SHT30;69442;51.442;10.564;2023-08-21T12:39:20;35.37;43.19
80132;SHT30;69442;51.442;10.564;2023-08-21T12:41:47;35.33;43.30
80132;SHT30;69442;51.442;10.564;2023-08-21T12:44:14;35.26;43.11
80132;SHT30;69442;51.442;10.564;2023-08-21T12:46:39;35.18;43.41
80132;SHT30;69442;51.442;10.564;2023-08-21T12:49:04;35.13;43.28
80132;SHT30;69442;51.442;10.564;2023-08-21T12:51:30;35.06;43.03
80132;SHT30;69442;51.442;10.564;2023-08-21T12:53:55;35.00;42.89
80132;SHT30;69442;51.442;10.564;2023-08-21T12:56:21;34.90;43.33
80132;SHT30;69442;51.442;10.564;2023-08-21T12:58:46;34.86;42.68
80132;SHT30;69442;51.442;10.564;2023-08-21T13:01:12;34.82;43.23
80132;SHT30;69442;51.442;10.564;2023-08-21T13:03:38;34.82;42.90
80132;SHT30;69442;51.442;10.564;2023-08-21T13:06:03;34.78;42.32
80132;SHT30;69442;51.442;10.564;2023-08-21T13:08:29;34.73;42.24
80132;SHT30;69442;51.442;10.564;2023-08-21T13:10:54;34.73;42.32
80132;SHT30;69442;51.442;10.564;2023-08-21T13:13:20;34.78;43.42
80132;SHT30;69442;51.442;10.564;2023-08-21T13:15:45;34.80;42.70
80132;SHT30;69442;51.442;10.564;2023-08-21T13:18:12;34.85;43.51
80132;SHT30;69442;51.442;10.564;2023-08-21T13:20:38;34.90;43.71
80132;SHT30;69442;51.442;10.564;2023-08-21T13:23:03;34.90;42.67
80132;SHT30;69442;51.442;10.564;2023-08-21T13:25:29;34.95;42.39
80132;SHT30;69442;51.442;10.564;2023-08-21T13:27:55;34.92;42.08
80132;SHT30;69442;51.442;10.564;2023-08-21T13:30:20;34.89;41.91
80132;SHT30;69442;51.442;10.564;2023-08-21T13:32:47;34.90;42.08
80132;SHT30;69442;51.442;10.564;2023-08-21T13:35:12;34.92;42.20
80132;SHT30;69442;51.442;10.564;2023-08-21T13:37:38;34.89;42.20
80132;SHT30;69442;51.442;10.564;2023-08-21T13:40:05;34.82;41.94
80132;SHT30;69442;51.442;10.564;2023-08-21T13:42:38;34.80;42.12
80132;SHT30;69442;51.442;10.564;2023-08-21T13:45:07;34.80;42.01
80132;SHT30;69442;51.442;10.564;2023-08-21T13:47:33;34.80;42.11
80132;SHT30;69442;51.442;10.564;2023-08-21T13:49:59;34.78;41.30
80132;SHT30;69442;51.442;10.564;2023-08-21T13:52:24;34.76;41.27
80132;SHT30;69442;51.442;10.564;2023-08-21T13:54:49;34.86;41.65
80132;SHT30;69442;51.442;10.564;2023-08-21T13:57:15;34.90;41.76
80132;SHT30;69442;51.442;10.564;2023-08-21T13:59:40;34.95;41.72
80132;SHT30;69442;51.442;10.564;2023-08-21T14:02:06;34.92;40.89
80132;SHT30;69442;51.442;10.564;2023-08-21T14:04:32;34.93;41.19
80132;SHT30;69442;51.442;10.564;2023-08-21T14:06:57;34.96;41.68
80132;SHT30;69442;51.442;10.564;2023-08-21T14:09:23;34.97;41.89
80132;SHT30;69442;51.442;10.564;2023-08-21T14:11:48;34.93;41.28
80132;SHT30;69442;51.442;10.564;2023-08-21T14:14:14;34.90;41.55
80132;SHT30;69442;51.442;10.564;2023-08-21T14:16:39;34.89;41.55
80132;SHT30;69442;51.442;10.564;2023-08-21T14:19:04;34.85;41.40
80132;SHT30;69442;51.442;10.564;2023-08-21T14:21:30;34.86;41.21
80132;SHT30;69442;51.442;10.564;2023-08-21T14:23:55;34.87;41.34
80132;SHT30;69442;51.442;10.564;2023-08-21T14:26:20;34.86;41.01
80132;SHT30;69442;51.442;10.564;2023-08-21T14:28:47;34.82;40.42
80132;SHT30;69442;51.442;10.564;2023-08-21T14:31:16;34.85;40.49
80132;SHT30;69442;51.442;10.564;2023-08-21T14:33:41;34.85;40.61
80132;SHT30;69442;51.442;10.564;2023-08-21T14:36:07;34.85;41.06
80132;SHT30;69442;51.442;10.564;2023-08-21T14:38:32;34.83;41.30
80132;SHT30;69442;51.442;10.564;2023-08-21T14:40:58;34.86;41.37
80132;SHT30;69442;51.442;10.564;2023-08-21T14:43:23;34.89;41.06
80132;SHT30;69442;51.442;10.564;2023-08-21T14:45:48;34.87;40.78
80132;SHT30;69442;51.442;10.564;2023-08-21T14:48:14;34.83;39.82
80132;SHT30;69442;51.442;10.564;2023-08-21T14:50:39;34.87;40.35
80132;SHT30;69442;51.442;10.564;2023-08-21T14:53:05;34.83;40.34
80132;SHT30;69442;51.442;10.564;2023-08-21T14:55:30;34.85;40.00
80132;SHT30;69442;51.442;10.564;2023-08-21T14:57:55;34.82;39.89
80132;SHT30;69442;51.442;10.564;2023-08-21T15:00:21;34.82;40.17
80132;SHT30;69442;51.442;10.564;2023-08-21T15:02:46;34.80;40.27
80132;SHT30;69442;51.442;10.564;2023-08-21T15:05:12;34.79;40.73
80132;SHT30;69442;51.442;10.564;2023-08-21T15:07:40;34.80;40.76
80132;SHT30;69442;51.442;10.564;2023-08-21T15:10:06;34.73;40.85
80132;SHT30;69442;51.442;10.564;2023-08-21T15:12:31;34.66;41.44
80132;SHT30;69442;51.442;10.564;2023-08-21T15:14:57;34.63;41.77